createdAt,value
2017-10-08T00:01:37.816Z,10.20
2017-10-08T00:04:08.052Z,10.30
2017-10-08T00:06:37.747Z,10.20
2017-10-08T00:09:08.189Z,10.30
2017-10-08T00:11:38.661Z,10.30
2017-10-08T00:14:08.330Z,10.30
2017-10-08T00:16:38.784Z,10.30
2017-10-08T00:19:08.499Z,10.30
2017-10-08T00:21:38.176Z,10.30
2017-10-08T00:24:07.707Z,10.30
2017-10-08T00:26:37.204Z,10.30
2017-10-08T00:29:06.694Z,10.30
2017-10-08T00:31:36.201Z,10.40
2017-10-08T00:34:05.869Z,10.40
2017-10-08T00:36:35.348Z,10.40
2017-10-08T00:39:04.382Z,10.40
2017-10-08T00:41:34.822Z,10.40
2017-10-08T00:44:05.295Z,10.40
2017-10-08T00:46:34.243Z,10.40
2017-10-08T00:49:04.365Z,10.50
2017-10-08T00:51:34.803Z,10.50
2017-10-08T00:54:04.521Z,10.50
2017-10-08T00:56:33.304Z,10.50
2017-10-08T00:59:02.438Z,10.50
2017-10-08T01:01:31.813Z,10.50
2017-10-08T01:04:01.500Z,10.60
2017-10-08T01:06:31.258Z,10.60
2017-10-08T01:09:00.595Z,10.60
2017-10-08T01:11:30.832Z,10.60
2017-10-08T01:14:00.948Z,10.60
2017-10-08T01:16:31.387Z,10.60
2017-10-08T01:19:00.907Z,10.60
2017-10-08T01:21:29.890Z,10.60
2017-10-08T01:23:58.692Z,10.60
2017-10-08T01:26:27.501Z,10.60
2017-10-08T01:28:56.858Z,10.60
2017-10-08T01:31:26.406Z,10.60
2017-10-08T01:33:55.248Z,10.60
2017-10-08T01:36:24.785Z,10.60
2017-10-08T01:38:53.902Z,10.60
2017-10-08T01:41:23.095Z,10.70
2017-10-08T01:43:52.756Z,10.70
2017-10-08T01:46:22.466Z,10.70
2017-10-08T01:48:52.930Z,10.70
2017-10-08T01:51:22.089Z,10.70
2017-10-08T01:53:52.556Z,10.70
2017-10-08T01:56:21.746Z,10.80
2017-10-08T01:58:51.219Z,10.80
2017-10-08T02:01:21.194Z,10.80
2017-10-08T02:03:50.883Z,10.80
2017-10-08T02:06:20.008Z,10.80
2017-10-08T02:08:49.698Z,10.80
2017-10-08T02:11:19.380Z,10.80
2017-10-08T02:13:49.651Z,10.80
2017-10-08T02:16:19.431Z,10.80
2017-10-08T02:18:49.355Z,10.90
2017-10-08T02:21:19.073Z,10.80
2017-10-08T02:23:48.783Z,10.80
2017-10-08T02:26:18.488Z,10.80
2017-10-08T02:28:48.155Z,10.80
2017-10-08T02:31:17.876Z,10.80
2017-10-08T02:33:49.086Z,10.90
2017-10-08T02:36:19.641Z,10.90
2017-10-08T02:38:49.350Z,10.90
2017-10-08T02:41:19.011Z,10.90
2017-10-08T02:43:48.714Z,10.90
2017-10-08T02:46:18.192Z,10.90
2017-10-08T02:48:48.682Z,10.90
2017-10-08T02:51:18.350Z,10.90
2017-10-08T02:53:48.082Z,10.90
2017-10-08T02:56:17.554Z,11.00
2017-10-08T02:58:47.438Z,11.00
2017-10-08T03:01:17.105Z,11.00
2017-10-08T03:03:46.810Z,11.00
2017-10-08T03:06:16.477Z,11.00
2017-10-08T03:08:46.198Z,11.00
2017-10-08T03:11:16.643Z,11.10
2017-10-08T03:13:46.372Z,11.00
2017-10-08T03:16:16.037Z,11.10
2017-10-08T03:18:45.850Z,11.10
2017-10-08T03:21:15.534Z,11.10
2017-10-08T03:23:45.244Z,11.10
2017-10-08T03:26:14.925Z,11.10
2017-10-08T03:28:44.621Z,11.10
2017-10-08T03:31:14.343Z,11.10
2017-10-08T03:33:44.090Z,11.10
2017-10-08T03:36:14.022Z,11.20
2017-10-08T03:38:43.742Z,11.20
2017-10-08T03:41:13.419Z,11.20
2017-10-08T03:43:43.126Z,11.20
2017-10-08T03:46:12.850Z,11.20
2017-10-08T03:48:42.752Z,11.20
2017-10-08T03:51:12.421Z,11.30
2017-10-08T03:53:42.126Z,11.20
2017-10-08T03:56:11.453Z,11.30
2017-10-08T03:58:41.135Z,11.30
2017-10-08T04:01:11.627Z,11.30
2017-10-08T04:03:41.083Z,11.30
2017-10-08T04:06:10.791Z,11.30
2017-10-08T04:08:40.280Z,11.30
2017-10-08T04:11:10.759Z,11.30
2017-10-08T04:13:40.226Z,11.30
2017-10-08T04:16:09.706Z,11.30
2017-10-08T04:18:39.799Z,11.30
2017-10-08T04:21:09.273Z,11.30
2017-10-08T04:23:38.984Z,11.30
2017-10-08T04:26:08.651Z,11.30
2017-10-08T04:28:39.134Z,11.30
2017-10-08T04:31:08.793Z,11.20
2017-10-08T04:33:39.488Z,11.30
2017-10-08T04:36:08.962Z,11.30
2017-10-08T04:38:38.672Z,11.30
2017-10-08T04:41:08.368Z,11.30
2017-10-08T04:43:38.056Z,11.40
2017-10-08T04:46:07.818Z,11.40
2017-10-08T04:48:37.469Z,11.40
2017-10-08T04:51:07.446Z,11.40
2017-10-08T04:53:37.130Z,11.40
2017-10-08T04:56:06.810Z,11.40
2017-10-08T04:58:37.258Z,11.40
2017-10-08T05:01:07.159Z,11.40
2017-10-08T05:03:37.604Z,11.40
2017-10-08T05:06:07.581Z,11.30
2017-10-08T05:08:37.258Z,11.20
2017-10-08T05:11:06.998Z,11.10
2017-10-08T05:13:36.681Z,11.00
2017-10-08T05:16:05.675Z,11.00
2017-10-08T05:18:35.387Z,11.00
2017-10-08T05:21:05.054Z,11.00
2017-10-08T05:23:35.525Z,10.90
2017-10-08T05:26:05.183Z,10.90
2017-10-08T05:28:35.660Z,10.80
2017-10-08T05:31:05.326Z,10.80
2017-10-08T05:33:36.004Z,10.90
2017-10-08T05:36:05.681Z,10.80
2017-10-08T05:38:36.132Z,10.80
2017-10-08T05:41:05.809Z,10.80
2017-10-08T05:43:36.296Z,10.80
2017-10-08T05:46:05.993Z,10.80
2017-10-08T05:48:35.671Z,10.80
2017-10-08T05:51:05.202Z,10.80
2017-10-08T05:53:34.885Z,10.80
2017-10-08T05:56:04.575Z,10.80
2017-10-08T05:58:34.547Z,10.80
2017-10-08T06:01:04.198Z,10.70
2017-10-08T06:03:34.882Z,10.80
2017-10-08T06:06:04.543Z,10.80
2017-10-08T06:08:35.031Z,10.80
2017-10-08T06:11:04.690Z,10.80
2017-10-08T06:13:34.423Z,10.80
2017-10-08T06:16:04.098Z,10.80
2017-10-08T06:18:33.790Z,10.80
2017-10-08T06:21:03.462Z,10.80
2017-10-08T06:23:33.172Z,10.90
2017-10-08T06:26:02.834Z,10.90
2017-10-08T06:28:32.521Z,10.90
2017-10-08T06:31:02.234Z,10.90
2017-10-08T06:33:31.895Z,10.90
2017-10-08T06:36:01.588Z,10.90
2017-10-08T06:38:32.017Z,10.90
2017-10-08T06:41:01.726Z,10.90
2017-10-08T06:43:32.176Z,10.90
2017-10-08T06:46:02.014Z,10.90
2017-10-08T06:48:31.500Z,10.90
2017-10-08T06:51:01.215Z,10.90
2017-10-08T06:53:30.881Z,10.90
2017-10-08T06:56:01.377Z,10.90
2017-10-08T06:58:31.032Z,11.00
2017-10-08T07:01:01.702Z,11.00
2017-10-08T07:03:31.365Z,11.00
2017-10-08T07:06:01.834Z,10.90
2017-10-08T07:08:31.506Z,10.90
2017-10-08T07:11:01.999Z,11.00
2017-10-08T07:13:31.499Z,10.90
2017-10-08T07:16:00.819Z,11.00
2017-10-08T07:18:31.293Z,11.00
2017-10-08T07:21:00.277Z,11.00
2017-10-08T07:23:29.759Z,11.00
2017-10-08T07:25:59.896Z,11.00
2017-10-08T07:28:30.323Z,11.10
2017-10-08T07:31:00.813Z,11.00
2017-10-08T07:33:30.481Z,11.00
2017-10-08T07:36:00.317Z,11.00
2017-10-08T07:38:29.995Z,11.10
2017-10-08T07:40:59.716Z,11.10
2017-10-08T07:43:29.382Z,11.20
2017-10-08T07:45:58.949Z,11.20
2017-10-08T07:48:28.654Z,11.20
2017-10-08T07:50:58.338Z,11.20
2017-10-08T07:53:28.631Z,11.30
2017-10-08T07:55:58.319Z,11.30
2017-10-08T07:58:27.824Z,11.40
2017-10-08T08:00:57.510Z,11.50
2017-10-08T08:03:27.250Z,11.60
2017-10-08T08:05:56.571Z,11.60
2017-10-08T08:08:26.251Z,11.70
2017-10-08T08:10:55.970Z,11.80
2017-10-08T08:13:25.099Z,11.80
2017-10-08T08:15:55.555Z,12.00
2017-10-08T08:18:25.342Z,12.00
2017-10-08T08:20:55.823Z,12.10
2017-10-08T08:23:25.507Z,12.10
2017-10-08T08:25:55.200Z,12.10
2017-10-08T08:28:24.879Z,12.10
2017-10-08T08:30:55.355Z,12.40
2017-10-08T08:33:25.075Z,12.40
2017-10-08T08:35:54.764Z,12.50
2017-10-08T08:38:24.462Z,12.40
2017-10-08T08:40:54.948Z,12.30
2017-10-08T08:43:24.605Z,12.20
2017-10-08T08:45:54.311Z,12.30
2017-10-08T08:48:24.753Z,12.30
2017-10-08T08:50:54.463Z,12.30
2017-10-08T08:53:24.339Z,12.30
2017-10-08T08:55:54.186Z,12.30
2017-10-08T08:58:23.911Z,12.20
2017-10-08T09:00:53.673Z,12.30
2017-10-08T09:03:23.378Z,12.30
2017-10-08T09:05:52.916Z,12.40
2017-10-08T09:08:23.351Z,12.40
2017-10-08T09:10:52.903Z,12.40
2017-10-08T09:13:22.421Z,12.40
2017-10-08T09:15:52.138Z,12.50
2017-10-08T09:18:21.830Z,12.60
2017-10-08T09:20:51.578Z,12.60
2017-10-08T09:23:22.045Z,12.40
2017-10-08T09:25:51.730Z,12.40
2017-10-08T09:28:21.986Z,12.80
2017-10-08T09:30:51.709Z,12.80
2017-10-08T09:33:21.388Z,13.10
2017-10-08T09:35:51.109Z,13.60
2017-10-08T09:38:20.838Z,13.60
2017-10-08T09:40:50.593Z,13.60
2017-10-08T09:43:21.014Z,13.80
2017-10-08T09:45:50.767Z,13.80
2017-10-08T09:48:20.471Z,13.80
2017-10-08T09:50:50.173Z,14.00
2017-10-08T09:53:19.875Z,14.20
2017-10-08T09:55:50.380Z,14.00
2017-10-08T09:58:20.076Z,14.00
2017-10-08T10:00:49.793Z,13.70
2017-10-08T10:03:19.529Z,13.70
2017-10-08T10:05:50.247Z,13.70
2017-10-08T10:08:19.713Z,13.70
2017-10-08T10:10:49.617Z,13.70
2017-10-08T10:13:19.281Z,13.70
2017-10-08T10:15:48.993Z,13.80
2017-10-08T10:18:18.671Z,14.00
2017-10-08T10:20:48.608Z,14.30
2017-10-08T10:23:18.284Z,14.40
2017-10-08T10:25:48.030Z,14.30
2017-10-08T10:28:17.745Z,14.40
2017-10-08T10:30:48.018Z,14.50
2017-10-08T10:33:17.717Z,14.50
2017-10-08T10:35:47.439Z,14.00
2017-10-08T10:38:17.109Z,13.90
2017-10-08T10:40:47.586Z,13.70
2017-10-08T10:43:17.344Z,13.70
2017-10-08T10:45:47.006Z,13.70
2017-10-08T10:48:16.742Z,13.70
2017-10-08T10:50:46.420Z,13.50
2017-10-08T10:53:16.132Z,13.40
2017-10-08T10:55:45.607Z,13.10
2017-10-08T10:58:16.291Z,12.70
2017-10-08T11:00:46.000Z,12.70
2017-10-08T11:03:16.096Z,13.20
2017-10-08T11:05:45.574Z,14.00
2017-10-08T11:08:14.982Z,15.30
2017-10-08T11:10:44.482Z,16.30
2017-10-08T11:13:13.898Z,17.70
2017-10-08T11:15:43.316Z,18.70
2017-10-08T11:18:12.543Z,18.90
2017-10-08T11:20:42.964Z,20.30
2017-10-08T11:23:12.372Z,20.30
2017-10-08T11:25:41.756Z,21.10
2017-10-08T11:28:11.635Z,21.70
2017-10-08T11:30:41.034Z,21.40
2017-10-08T11:33:10.444Z,21.40
2017-10-08T11:35:39.895Z,21.50
2017-10-08T11:38:09.298Z,22.50
2017-10-08T11:40:38.700Z,23.10
2017-10-08T11:43:08.197Z,22.30
2017-10-08T11:45:37.608Z,21.40
2017-10-08T11:48:07.033Z,21.10
2017-10-08T11:50:36.439Z,19.60
2017-10-08T11:53:05.839Z,17.60
2017-10-08T11:55:35.287Z,16.70
2017-10-08T11:58:04.527Z,15.90
2017-10-08T12:00:33.931Z,15.50
2017-10-08T12:03:04.143Z,18.60
2017-10-08T12:05:33.549Z,18.60
2017-10-08T12:08:03.738Z,21.30
2017-10-08T12:10:33.168Z,21.20
2017-10-08T12:13:02.567Z,20.40
2017-10-08T12:15:32.010Z,20.00
2017-10-08T12:18:01.444Z,20.10
2017-10-08T12:20:30.835Z,21.00
2017-10-08T12:23:00.302Z,22.00
2017-10-08T12:25:29.703Z,22.80
2017-10-08T12:27:59.929Z,23.70
2017-10-08T12:30:30.085Z,24.30
2017-10-08T12:32:59.507Z,24.30
2017-10-08T12:35:28.919Z,24.50
2017-10-08T12:37:58.363Z,23.90
2017-10-08T12:40:27.841Z,24.40
2017-10-08T12:42:57.270Z,23.90
2017-10-08T12:45:26.734Z,21.70
2017-10-08T12:47:56.289Z,20.00
2017-10-08T12:50:26.745Z,18.70
2017-10-08T12:52:56.196Z,18.70
2017-10-08T12:55:25.599Z,19.70
2017-10-08T12:57:55.216Z,19.80
2017-10-08T13:00:24.647Z,19.50
2017-10-08T13:02:53.842Z,19.60
2017-10-08T13:05:24.143Z,21.80
2017-10-08T13:07:54.720Z,21.70
2017-10-08T13:10:24.130Z,22.70
2017-10-08T13:12:53.552Z,23.00
2017-10-08T13:15:23.057Z,23.70
2017-10-08T13:17:52.460Z,23.30
2017-10-08T13:20:21.887Z,23.20
2017-10-08T13:22:51.301Z,23.40
2017-10-08T13:25:20.684Z,23.00
2017-10-08T13:27:50.106Z,23.00
2017-10-08T13:30:20.270Z,21.80
2017-10-08T13:32:49.986Z,21.80
2017-10-08T13:35:19.387Z,21.70
2017-10-08T13:37:48.780Z,22.50
2017-10-08T13:40:18.406Z,23.20
2017-10-08T13:42:47.799Z,22.60
2017-10-08T13:45:17.229Z,22.30
2017-10-08T13:47:46.701Z,22.90
2017-10-08T13:50:16.107Z,22.60
2017-10-08T13:52:45.542Z,23.20
2017-10-08T13:55:15.008Z,23.00
2017-10-08T13:57:44.413Z,23.20
2017-10-08T14:00:13.835Z,22.90
2017-10-08T14:02:43.281Z,22.70
2017-10-08T14:05:12.718Z,22.40
2017-10-08T14:07:42.154Z,22.80
2017-10-08T14:10:11.562Z,22.30
2017-10-08T14:12:40.990Z,21.00
2017-10-08T14:15:10.430Z,20.40
2017-10-08T14:17:40.857Z,21.10
2017-10-08T14:20:11.019Z,21.30
2017-10-08T14:22:40.466Z,21.30
2017-10-08T14:25:10.233Z,21.00
2017-10-08T14:27:39.733Z,20.90
2017-10-08T14:30:09.203Z,20.70
2017-10-08T14:32:40.001Z,21.10
2017-10-08T14:35:09.563Z,21.10
2017-10-08T14:37:40.334Z,21.20
2017-10-08T14:40:09.809Z,20.90
2017-10-08T14:42:39.240Z,20.50
2017-10-08T14:45:09.218Z,20.40
2017-10-08T14:47:38.955Z,19.50
2017-10-08T14:50:08.683Z,20.00
2017-10-08T14:52:38.165Z,20.30
2017-10-08T14:55:07.649Z,20.50
2017-10-08T14:57:36.781Z,20.00
2017-10-08T15:00:06.170Z,20.30
2017-10-08T15:02:35.371Z,20.30
2017-10-08T15:05:04.887Z,20.20
2017-10-08T15:07:34.289Z,20.30
2017-10-08T15:10:03.542Z,19.60
2017-10-08T15:12:34.347Z,17.60
2017-10-08T15:15:03.574Z,17.60
2017-10-08T15:17:35.470Z,15.80
2017-10-08T15:20:04.683Z,15.70
2017-10-08T15:22:34.337Z,15.50
2017-10-08T15:25:04.883Z,15.30
2017-10-08T15:27:35.026Z,15.20
2017-10-08T15:30:05.616Z,14.80
2017-10-08T15:32:35.726Z,14.80
2017-10-08T15:35:05.636Z,15.00
2017-10-08T15:37:35.969Z,15.20
2017-10-08T15:40:06.135Z,14.90
2017-10-08T15:42:36.317Z,14.60
2017-10-08T15:45:06.579Z,14.70
2017-10-08T15:47:35.854Z,15.30
2017-10-08T15:50:06.032Z,15.00
2017-10-08T15:52:36.317Z,14.60
2017-10-08T15:55:06.005Z,14.60
2017-10-08T15:57:35.718Z,14.40
2017-10-08T16:00:05.393Z,14.00
2017-10-08T16:02:35.364Z,13.90
2017-10-08T16:05:05.042Z,13.70
2017-10-08T16:07:34.727Z,13.60
2017-10-08T16:10:04.433Z,13.50
2017-10-08T16:12:34.149Z,13.40
2017-10-08T16:15:03.868Z,13.30
2017-10-08T16:17:33.339Z,13.20
2017-10-08T16:20:03.624Z,13.10
2017-10-08T16:22:33.323Z,13.00
2017-10-08T16:25:03.041Z,12.90
2017-10-08T16:27:32.703Z,12.80
2017-10-08T16:30:03.314Z,12.80
2017-10-08T16:32:32.977Z,12.80
2017-10-08T16:35:02.812Z,12.70
2017-10-08T16:37:32.502Z,12.60
2017-10-08T16:40:02.158Z,12.60
2017-10-08T16:42:32.145Z,12.50
2017-10-08T16:45:01.803Z,12.50
2017-10-08T16:47:31.871Z,12.30
2017-10-08T16:50:01.535Z,12.30
2017-10-08T16:52:32.016Z,12.20
2017-10-08T16:55:01.493Z,12.20
2017-10-08T16:57:30.994Z,12.10
2017-10-08T17:00:01.128Z,12.10
2017-10-08T17:02:30.905Z,12.00
2017-10-08T17:05:01.362Z,12.00
2017-10-08T17:07:31.035Z,12.00
2017-10-08T17:10:01.495Z,11.90
2017-10-08T17:12:31.199Z,11.90
2017-10-08T17:15:00.869Z,11.80
2017-10-08T17:17:30.582Z,11.90
2017-10-08T17:20:00.247Z,11.80
2017-10-08T17:22:29.965Z,11.70
2017-10-08T17:24:59.650Z,11.60
2017-10-08T17:27:29.579Z,11.60
2017-10-08T17:29:59.302Z,11.60
2017-10-08T17:32:28.803Z,11.50
2017-10-08T17:34:59.279Z,11.60
2017-10-08T17:37:29.734Z,11.40
2017-10-08T17:39:59.452Z,11.40
2017-10-08T17:42:29.179Z,11.40
2017-10-08T17:44:58.938Z,11.30
2017-10-08T17:47:29.419Z,11.10
2017-10-08T17:49:59.408Z,11.10
2017-10-08T17:52:29.832Z,11.00
2017-10-08T17:54:59.575Z,10.90
2017-10-08T17:57:29.237Z,10.80
2017-10-08T17:59:59.768Z,10.80
2017-10-08T18:02:30.187Z,10.70
2017-10-08T18:05:00.677Z,10.60
2017-10-08T18:07:30.347Z,10.60
2017-10-08T18:10:00.641Z,10.40
2017-10-08T18:12:30.152Z,10.40
2017-10-08T18:14:59.856Z,10.40
2017-10-08T18:17:30.135Z,10.30
2017-10-08T18:19:59.657Z,10.30
2017-10-08T18:22:29.146Z,10.40
2017-10-08T18:24:58.631Z,10.30
2017-10-08T18:27:28.169Z,10.20
2017-10-08T18:29:57.835Z,10.30
2017-10-08T18:32:28.304Z,10.20
2017-10-08T18:34:57.984Z,10.20
2017-10-08T18:37:28.443Z,10.10
2017-10-08T18:39:58.519Z,10.10
2017-10-08T18:42:28.979Z,10.10
2017-10-08T18:44:58.850Z,10.10
2017-10-08T18:47:29.299Z,10.10
2017-10-08T18:49:59.031Z,10.10
2017-10-08T18:52:28.505Z,10.00
2017-10-08T18:54:58.086Z,10.00
2017-10-08T18:57:27.753Z,9.90
2017-10-08T18:59:57.455Z,9.90
2017-10-08T19:02:27.143Z,9.80
2017-10-08T19:04:57.608Z,9.80
2017-10-08T19:07:27.261Z,9.80
2017-10-08T19:09:56.971Z,9.80
2017-10-08T19:12:27.396Z,9.90
2017-10-08T19:14:57.897Z,9.80
2017-10-08T19:17:27.582Z,9.80
2017-10-08T19:19:57.272Z,9.80
2017-10-08T19:22:26.994Z,9.70
2017-10-08T19:24:56.653Z,9.60
2017-10-08T19:27:26.341Z,9.60
2017-10-08T19:29:56.010Z,9.50
2017-10-08T19:32:25.711Z,9.60
2017-10-08T19:34:56.128Z,9.50
2017-10-08T19:37:25.822Z,9.40
2017-10-08T19:39:55.495Z,9.40
2017-10-08T19:42:25.197Z,9.50
2017-10-08T19:44:54.880Z,9.40
2017-10-08T19:47:25.365Z,9.30
2017-10-08T19:49:55.049Z,9.30
2017-10-08T19:52:24.763Z,9.30
2017-10-08T19:54:55.311Z,9.30
2017-10-08T19:57:24.966Z,9.30
2017-10-08T19:59:55.453Z,9.30
2017-10-08T20:02:24.569Z,9.20
2017-10-08T20:04:54.852Z,9.20
2017-10-08T20:07:24.542Z,9.10
2017-10-08T20:09:54.222Z,9.10
2017-10-08T20:12:23.925Z,9.00
2017-10-08T20:14:54.357Z,9.00
2017-10-08T20:17:24.042Z,9.00
2017-10-08T20:19:53.726Z,9.00
2017-10-08T20:22:23.460Z,8.80
2017-10-08T20:24:53.178Z,8.80
2017-10-08T20:27:22.835Z,8.80
2017-10-08T20:29:54.007Z,8.80
2017-10-08T20:32:23.683Z,8.70
2017-10-08T20:34:54.174Z,8.60
2017-10-08T20:37:23.830Z,8.60
2017-10-08T20:39:53.526Z,8.60
2017-10-08T20:42:23.950Z,8.50
2017-10-08T20:44:54.418Z,8.40
2017-10-08T20:47:24.114Z,8.40
2017-10-08T20:49:54.060Z,8.40
2017-10-08T20:52:23.709Z,8.40
2017-10-08T20:54:54.188Z,8.40
2017-10-08T20:57:23.867Z,8.40
2017-10-08T20:59:53.583Z,8.40
2017-10-08T21:02:23.232Z,8.30
2017-10-08T21:04:52.726Z,8.30
2017-10-08T21:07:22.214Z,8.30
2017-10-08T21:09:51.990Z,8.30
2017-10-08T21:12:22.226Z,8.20
2017-10-08T21:14:52.687Z,8.20
2017-10-08T21:17:22.342Z,8.20
2017-10-08T21:19:51.882Z,8.10
2017-10-08T21:22:21.559Z,8.10
2017-10-08T21:24:51.262Z,8.10
2017-10-08T21:27:21.049Z,8.00
2017-10-08T21:29:51.885Z,8.00
2017-10-08T21:32:21.551Z,7.90
2017-10-08T21:34:52.398Z,7.80
2017-10-08T21:37:22.081Z,7.80
2017-10-08T21:39:51.756Z,7.80
2017-10-08T21:42:21.413Z,7.80
2017-10-08T21:44:51.898Z,7.70
2017-10-08T21:47:22.591Z,7.70
2017-10-08T21:49:52.320Z,7.70
2017-10-08T21:52:21.787Z,7.70
2017-10-08T21:54:52.477Z,7.70
2017-10-08T21:57:21.938Z,7.70
2017-10-08T21:59:52.186Z,7.70
2017-10-08T22:02:21.847Z,7.70
2017-10-08T22:04:52.299Z,7.70
2017-10-08T22:07:21.957Z,7.60
2017-10-08T22:09:51.646Z,7.60
2017-10-08T22:12:21.298Z,7.60
2017-10-08T22:14:51.752Z,7.60
2017-10-08T22:17:21.401Z,7.60
2017-10-08T22:19:51.090Z,7.60
2017-10-08T22:22:20.970Z,7.60
2017-10-08T22:24:51.394Z,7.60
2017-10-08T22:27:21.770Z,7.60
2017-10-08T22:29:51.457Z,7.60
2017-10-08T22:32:21.120Z,7.60
2017-10-08T22:34:51.032Z,7.60
2017-10-08T22:37:20.937Z,7.60
2017-10-08T22:39:50.659Z,7.50
2017-10-08T22:42:20.319Z,7.60
2017-10-08T22:44:49.998Z,7.60
2017-10-08T22:47:20.418Z,7.60
2017-10-08T22:49:50.881Z,7.60
2017-10-08T22:52:20.571Z,7.50
2017-10-08T22:54:51.041Z,7.50
2017-10-08T22:57:20.707Z,7.50
2017-10-08T22:59:51.147Z,7.50
2017-10-08T23:02:20.615Z,7.50
2017-10-08T23:04:50.317Z,7.50
2017-10-08T23:07:19.971Z,7.50
2017-10-08T23:09:49.692Z,7.50
2017-10-08T23:12:19.344Z,7.40
2017-10-08T23:14:49.054Z,7.30
2017-10-08T23:17:18.693Z,7.30
2017-10-08T23:19:49.070Z,7.20
2017-10-08T23:22:18.722Z,7.20
2017-10-08T23:24:48.996Z,7.10
2017-10-08T23:27:18.654Z,7.10
2017-10-08T23:29:49.105Z,7.00
2017-10-08T23:32:19.980Z,6.90
2017-10-08T23:34:49.628Z,6.90
2017-10-08T23:37:19.319Z,6.90
2017-10-08T23:39:48.976Z,7.00
2017-10-08T23:42:18.659Z,6.90
2017-10-08T23:44:48.902Z,6.80
2017-10-08T23:47:18.610Z,6.80
2017-10-08T23:49:48.271Z,6.70
2017-10-08T23:52:17.977Z,6.80
2017-10-08T23:54:47.688Z,6.70
2017-10-08T23:57:17.158Z,6.80
2017-10-08T23:59:46.865Z,6.80
